createdAt,value
2022-12-23T00:02:56.800Z,0.88
2022-12-23T00:06:20.967Z,0.75
2022-12-23T00:09:43.190Z,0.63
2022-12-23T00:13:23.910Z,0.85
2022-12-23T00:16:46.180Z,0.70
2022-12-23T00:20:11.296Z,0.80
2022-12-23T00:23:34.669Z,0.90
2022-12-23T00:26:56.899Z,0.60
2022-12-23T00:30:19.187Z,0.60
2022-12-23T00:33:43.719Z,0.70
2022-12-23T00:37:06.013Z,0.75
2022-12-23T00:40:46.723Z,0.70
2022-12-23T00:44:09.227Z,0.70
2022-12-23T00:47:54.689Z,0.65
2022-12-23T00:51:16.996Z,0.43
2022-12-23T00:54:39.413Z,0.40
2022-12-23T00:58:01.690Z,0.30
2022-12-23T01:01:42.981Z,0.40
2022-12-23T01:05:23.984Z,0.45
2022-12-23T01:08:46.278Z,0.50
2022-12-23T01:12:08.760Z,0.50
2022-12-23T01:15:31.628Z,0.40
2022-12-23T01:18:53.916Z,0.57
2022-12-23T01:22:16.236Z,0.40
2022-12-23T01:25:38.499Z,0.30
2022-12-23T01:29:01.576Z,0.25
2022-12-23T01:32:23.875Z,0.30
2022-12-23T01:35:46.142Z,0.20
2022-12-23T01:39:08.385Z,0.30
2022-12-23T01:42:46.636Z,0.30
2022-12-23T01:46:09.933Z,0.30
2022-12-23T01:49:32.369Z,0.43
2022-12-23T01:53:21.873Z,0.38
2022-12-23T01:56:44.278Z,0.22
2022-12-23T02:00:25.727Z,0.30
2022-12-23T02:03:49.625Z,0.30
2022-12-23T02:07:31.807Z,0.47
2022-12-23T02:11:06.369Z,0.20
2022-12-23T02:15:12.972Z,0.52
2022-12-23T02:18:44.100Z,0.28
2022-12-23T02:22:29.531Z,0.30
2022-12-23T02:26:10.317Z,0.20
2022-12-23T02:30:00.249Z,0.10
2022-12-23T02:33:31.580Z,0.30
2022-12-23T02:37:25.808Z,0.20
2022-12-23T02:41:09.818Z,0.20
2022-12-23T02:44:47.179Z,0.30
2022-12-23T02:48:22.475Z,0.30
2022-12-23T02:51:49.087Z,0.30
2022-12-23T02:55:19.123Z,0.28
2022-12-23T02:58:54.544Z,0.17
2022-12-23T03:05:43.125Z,0.30
2022-12-23T03:09:05.587Z,0.20
2022-12-23T03:13:13.034Z,0.20
2022-12-23T03:17:31.215Z,0.10
2022-12-23T03:21:16.783Z,0.25
2022-12-23T03:25:05.470Z,0.20
2022-12-23T03:28:27.695Z,0.20
2022-12-23T03:31:50.556Z,0.20
2022-12-23T03:35:18.379Z,0.40
2022-12-23T03:38:43.874Z,0.20
2022-12-23T03:42:13.083Z,0.40
2022-12-23T03:45:43.363Z,0.20
2022-12-23T03:49:09.166Z,0.20
2022-12-23T03:52:35.006Z,0.20
2022-12-23T03:56:04.089Z,0.30
2022-12-23T03:59:29.540Z,0.20
2022-12-23T04:03:00.340Z,0.30
2022-12-23T04:06:26.517Z,0.22
2022-12-23T04:09:51.139Z,0.38
2022-12-23T04:13:13.467Z,0.13
2022-12-23T04:16:35.896Z,0.17
2022-12-23T04:19:58.259Z,0.25
2022-12-23T04:23:20.561Z,0.30
2022-12-23T04:26:42.852Z,0.30
2022-12-23T04:30:07.573Z,0.30
2022-12-23T04:33:29.829Z,0.30
2022-12-23T04:36:52.371Z,0.20
2022-12-23T04:40:14.878Z,0.22
2022-12-23T04:43:37.092Z,0.20
2022-12-23T04:46:59.544Z,0.30
2022-12-23T04:50:21.852Z,0.30
2022-12-23T04:53:44.152Z,0.35
2022-12-23T04:57:06.692Z,0.20
2022-12-23T05:00:31.560Z,0.20
2022-12-23T05:03:57.785Z,0.17
2022-12-23T05:07:20.036Z,0.22
2022-12-23T05:10:42.265Z,0.20
2022-12-23T05:14:04.512Z,0.10
2022-12-23T05:17:26.801Z,0.20
2022-12-23T05:20:49.776Z,0.20
2022-12-23T05:24:12.113Z,0.20
2022-12-23T05:27:35.690Z,0.20
2022-12-23T05:31:02.873Z,0.25
2022-12-23T05:34:25.192Z,0.30
2022-12-23T05:37:47.710Z,0.17
2022-12-23T05:41:10.061Z,0.20
2022-12-23T05:44:32.333Z,0.20
2022-12-23T05:47:54.584Z,0.20
2022-12-23T05:51:16.899Z,0.10
2022-12-23T05:54:39.154Z,0.28
2022-12-23T05:58:01.720Z,0.13
2022-12-23T06:01:24.013Z,0.20
2022-12-23T06:04:46.224Z,0.10
2022-12-23T06:08:08.492Z,0.20
2022-12-23T06:11:30.757Z,0.10
2022-12-23T06:14:53.015Z,0.20
2022-12-23T06:18:15.565Z,0.30
2022-12-23T06:21:38.030Z,0.20
2022-12-23T06:25:00.404Z,0.15
2022-12-23T06:28:22.742Z,0.30
2022-12-23T06:31:45.044Z,0.20
2022-12-23T06:35:08.763Z,0.10
2022-12-23T06:38:31.304Z,0.10
2022-12-23T06:41:53.600Z,0.20
2022-12-23T06:45:16.081Z,0.20
2022-12-23T06:48:38.309Z,0.30
2022-12-23T06:52:00.539Z,0.30
2022-12-23T06:55:23.088Z,0.20
2022-12-23T06:58:45.368Z,0.10
2022-12-23T07:02:09.628Z,0.20
2022-12-23T07:05:37.096Z,0.30
2022-12-23T07:09:00.043Z,0.13
2022-12-23T07:12:22.531Z,0.20
2022-12-23T07:15:44.771Z,0.20
2022-12-23T07:19:07.127Z,0.20
2022-12-23T07:22:29.392Z,0.20
2022-12-23T07:25:51.708Z,0.20
2022-12-23T07:29:13.948Z,0.30
2022-12-23T07:32:36.165Z,0.10
2022-12-23T07:35:59.141Z,0.10
2022-12-23T07:39:21.506Z,0.20
2022-12-23T07:42:46.024Z,0.20
2022-12-23T07:49:31.626Z,0.20
2022-12-23T07:52:54.996Z,0.20
2022-12-23T07:56:18.616Z,0.10
2022-12-23T07:59:40.894Z,0.30
2022-12-23T08:03:03.560Z,0.10
2022-12-23T08:06:25.930Z,0.15
2022-12-23T08:09:48.225Z,0.25
2022-12-23T08:13:10.575Z,0.10
2022-12-23T08:16:37.843Z,0.15
2022-12-23T08:20:03.970Z,0.17
2022-12-23T08:23:28.078Z,0.45
2022-12-23T08:26:50.361Z,0.20
2022-12-23T08:30:12.930Z,0.20
2022-12-23T08:33:36.855Z,0.20
2022-12-23T08:36:59.126Z,0.32
2022-12-23T08:40:21.419Z,0.47
2022-12-23T08:43:43.711Z,0.40
2022-12-23T08:47:05.995Z,0.30
2022-12-23T08:50:28.266Z,0.77
2022-12-23T08:53:56.293Z,0.47
2022-12-23T08:57:21.974Z,0.32
2022-12-23T09:00:44.305Z,0.45
2022-12-23T09:04:08.040Z,0.47
2022-12-23T09:07:30.369Z,0.43
2022-12-23T09:10:52.644Z,0.70
2022-12-23T09:14:14.980Z,0.45
2022-12-23T09:17:37.200Z,0.75
2022-12-23T09:21:05.565Z,0.70
2022-12-23T09:24:27.839Z,0.70
2022-12-23T09:27:50.102Z,0.85
2022-12-23T09:31:13.204Z,0.60
2022-12-23T09:34:35.532Z,0.82
2022-12-23T09:37:57.840Z,0.57
2022-12-23T09:41:29.090Z,0.77
2022-12-23T09:45:10.456Z,0.57
2022-12-23T09:48:39.001Z,0.60
2022-12-23T09:52:04.805Z,0.80
2022-12-23T09:55:44.359Z,0.95
2022-12-23T09:59:12.239Z,0.90
2022-12-23T10:03:01.535Z,0.77
2022-12-23T10:06:29.017Z,0.80
2022-12-23T10:09:54.555Z,1.15
2022-12-23T10:13:29.735Z,0.80
2022-12-23T10:17:17.611Z,0.73
2022-12-23T10:20:47.397Z,0.82
2022-12-23T10:24:38.670Z,0.80
2022-12-23T10:28:01.190Z,0.80
2022-12-23T10:31:41.187Z,0.63
2022-12-23T10:35:22.141Z,1.15
2022-12-23T10:38:55.106Z,0.70
2022-12-23T10:42:23.197Z,1.10
2022-12-23T10:45:56.028Z,0.95
2022-12-23T10:49:33.431Z,0.90
2022-12-23T10:52:58.294Z,0.57
2022-12-23T10:56:21.123Z,1.00
2022-12-23T10:59:43.825Z,0.68
2022-12-23T11:03:20.750Z,0.80
2022-12-23T11:06:46.439Z,1.15
2022-12-23T11:10:18.690Z,0.82
2022-12-23T11:13:43.456Z,1.20
2022-12-23T11:17:19.279Z,0.82
2022-12-23T11:20:43.667Z,0.82
2022-12-23T11:24:20.220Z,1.77
2022-12-23T11:27:46.839Z,2.38
2022-12-23T11:31:14.408Z,2.50
2022-12-23T11:34:38.172Z,1.95
2022-12-23T11:38:02.621Z,1.90
2022-12-23T11:41:28.970Z,2.10
2022-12-23T11:44:54.933Z,2.45
2022-12-23T11:48:28.879Z,3.45
2022-12-23T11:52:13.377Z,2.67
2022-12-23T11:55:36.726Z,1.90
2022-12-23T11:59:07.637Z,2.40
2022-12-23T12:02:44.322Z,2.53
2022-12-23T12:06:07.459Z,2.33
2022-12-23T12:09:31.703Z,2.60
2022-12-23T12:13:02.561Z,3.23
2022-12-23T12:16:31.095Z,3.15
2022-12-23T12:20:23.557Z,2.85
2022-12-23T12:24:21.822Z,2.80
2022-12-23T12:27:49.925Z,3.33
2022-12-23T12:31:23.960Z,2.42
2022-12-23T12:35:00.900Z,3.08
2022-12-23T12:38:27.382Z,3.25
2022-12-23T12:42:00.050Z,6.13
2022-12-23T12:45:38.002Z,12.35
2022-12-23T12:49:09.430Z,15.40
2022-12-23T12:52:39.169Z,27.77
2022-12-23T12:56:14.126Z,27.90
2022-12-23T12:59:38.760Z,25.60
2022-12-23T13:03:19.681Z,37.42
2022-12-23T13:07:14.566Z,37.97
2022-12-23T13:11:07.918Z,37.78
2022-12-23T13:15:07.658Z,33.97
2022-12-23T13:18:55.882Z,33.33
2022-12-23T13:22:30.434Z,30.85
2022-12-23T13:26:05.172Z,30.33
2022-12-23T13:30:13.268Z,28.27
2022-12-23T13:33:49.638Z,26.38
2022-12-23T13:37:23.540Z,24.30
2022-12-23T13:41:07.513Z,20.85
2022-12-23T13:44:33.203Z,21.67
2022-12-23T13:48:27.694Z,19.58
2022-12-23T13:52:08.834Z,19.20
2022-12-23T13:56:17.641Z,17.05
2022-12-23T13:59:42.967Z,19.25
2022-12-23T14:03:12.785Z,18.23
2022-12-23T14:06:36.745Z,18.35
2022-12-23T14:10:09.969Z,15.77
2022-12-23T14:13:42.100Z,16.52
2022-12-23T14:17:22.809Z,13.70
2022-12-23T14:20:56.791Z,14.00
2022-12-23T14:24:46.711Z,12.73
2022-12-23T14:28:30.289Z,12.63
2022-12-23T14:31:57.330Z,11.18
2022-12-23T14:35:34.272Z,10.63
2022-12-23T14:39:30.709Z,10.40
2022-12-23T14:43:22.422Z,9.60
2022-12-23T14:46:45.144Z,10.18
2022-12-23T14:50:41.037Z,10.10
2022-12-23T14:54:03.374Z,9.30
2022-12-23T14:57:29.347Z,9.30
2022-12-23T15:01:00.161Z,8.18
2022-12-23T15:04:24.423Z,8.70
2022-12-23T15:07:47.415Z,9.53
2022-12-23T15:11:30.274Z,8.18
2022-12-23T15:14:56.790Z,8.60
2022-12-23T15:18:19.055Z,7.20
2022-12-23T15:21:41.386Z,7.03
2022-12-23T15:25:05.229Z,7.05
2022-12-23T15:28:39.384Z,6.93
2022-12-23T15:32:02.408Z,6.55
2022-12-23T15:35:29.454Z,6.70
2022-12-23T15:38:51.807Z,6.65
2022-12-23T15:42:21.955Z,5.85
2022-12-23T15:45:44.209Z,5.85
2022-12-23T15:49:06.848Z,5.75
2022-12-23T15:52:31.323Z,6.35
2022-12-23T15:55:53.757Z,5.85
2022-12-23T15:59:27.566Z,5.68
2022-12-23T16:03:01.845Z,5.68
2022-12-23T16:06:33.108Z,5.55
2022-12-23T16:09:55.401Z,4.93
2022-12-23T16:13:19.998Z,5.03
2022-12-23T16:16:43.477Z,4.45
2022-12-23T16:20:25.167Z,5.47
2022-12-23T16:23:51.751Z,5.40
2022-12-23T16:27:16.898Z,4.80
2022-12-23T16:30:41.963Z,5.15
2022-12-23T16:34:07.466Z,4.22
2022-12-23T16:37:29.777Z,4.55
2022-12-23T16:40:57.206Z,4.32
2022-12-23T16:44:19.501Z,3.67
2022-12-23T16:47:42.896Z,4.53
2022-12-23T16:51:13.875Z,5.13
2022-12-23T16:54:36.225Z,3.97
2022-12-23T16:57:58.454Z,4.90
2022-12-23T17:01:30.436Z,4.28
2022-12-23T17:04:52.716Z,4.10
2022-12-23T17:08:15.472Z,3.70
2022-12-23T17:11:40.051Z,4.47
2022-12-23T17:15:02.537Z,3.40
2022-12-23T17:18:24.858Z,3.67
2022-12-23T17:21:49.740Z,3.85
2022-12-23T17:25:14.011Z,3.97
2022-12-23T17:28:36.268Z,3.70
2022-12-23T17:31:59.234Z,3.70
2022-12-23T17:35:21.732Z,3.78
2022-12-23T17:38:44.006Z,4.13
2022-12-23T17:42:06.353Z,3.97
2022-12-23T17:45:30.737Z,3.08
2022-12-23T17:48:53.606Z,3.17
2022-12-23T17:52:21.151Z,3.13
2022-12-23T17:55:43.802Z,3.40
2022-12-23T17:59:06.112Z,3.28
2022-12-23T18:02:35.237Z,3.35
2022-12-23T18:06:01.970Z,3.53
2022-12-23T18:09:24.814Z,3.33
2022-12-23T18:12:51.712Z,2.83
2022-12-23T18:16:14.014Z,3.00
2022-12-23T18:19:36.296Z,3.30
2022-12-23T18:22:59.844Z,3.70
2022-12-23T18:26:22.266Z,2.97
2022-12-23T18:29:45.025Z,3.05
2022-12-23T18:33:10.063Z,3.65
2022-12-23T18:36:34.012Z,3.28
2022-12-23T18:39:56.450Z,3.63
2022-12-23T18:43:24.748Z,3.00
2022-12-23T18:46:48.285Z,3.20
2022-12-23T18:50:10.786Z,3.17
2022-12-23T18:53:33.204Z,3.17
2022-12-23T18:56:55.663Z,3.28
2022-12-23T19:00:21.173Z,2.40
2022-12-23T19:03:43.680Z,3.25
2022-12-23T19:07:06.487Z,4.90
2022-12-23T19:10:33.205Z,3.05
2022-12-23T19:13:55.456Z,3.15
2022-12-23T19:17:17.782Z,3.63
2022-12-23T19:20:40.109Z,3.15
2022-12-23T19:24:02.881Z,3.35
2022-12-23T19:27:25.221Z,3.08
2022-12-23T19:30:47.588Z,3.50
2022-12-23T19:34:15.012Z,2.90
2022-12-23T19:37:38.339Z,2.70
2022-12-23T19:41:00.715Z,4.43
2022-12-23T19:44:22.979Z,3.00
2022-12-23T19:47:45.324Z,2.70
2022-12-23T19:51:10.373Z,2.58
2022-12-23T19:54:32.798Z,2.83
2022-12-23T19:57:54.981Z,2.63
2022-12-23T20:01:24.046Z,2.78
2022-12-23T20:04:46.932Z,3.40
2022-12-23T20:08:09.379Z,2.55
2022-12-23T20:11:43.225Z,3.13
2022-12-23T20:15:07.310Z,2.30
2022-12-23T20:18:29.957Z,3.40
2022-12-23T20:21:52.196Z,3.10
2022-12-23T20:25:14.438Z,2.88
2022-12-23T20:28:36.691Z,2.85
2022-12-23T20:31:58.936Z,3.08
2022-12-23T20:35:21.382Z,3.15
2022-12-23T20:38:46.365Z,2.63
2022-12-23T20:42:08.633Z,3.00
2022-12-23T20:45:30.862Z,2.90
2022-12-23T20:48:53.467Z,3.58
2022-12-23T20:52:15.720Z,3.08
2022-12-23T20:55:38.025Z,3.33
2022-12-23T20:59:02.681Z,3.05
2022-12-23T21:02:24.931Z,3.03
2022-12-23T21:05:47.211Z,2.78
2022-12-23T21:09:12.290Z,2.78
2022-12-23T21:12:34.551Z,3.50
2022-12-23T21:16:09.005Z,3.10
2022-12-23T21:19:31.393Z,3.17
2022-12-23T21:22:53.646Z,3.10
2022-12-23T21:26:21.627Z,3.20
2022-12-23T21:29:44.062Z,3.15
2022-12-23T21:33:06.346Z,2.70
2022-12-23T21:36:31.704Z,3.30
2022-12-23T21:39:53.943Z,3.00
2022-12-23T21:43:16.223Z,3.60
2022-12-23T21:46:38.536Z,3.83
2022-12-23T21:50:00.882Z,3.47
2022-12-23T21:53:23.134Z,2.58
2022-12-23T21:56:45.546Z,3.30
2022-12-23T22:00:08.534Z,3.28
2022-12-23T22:03:30.846Z,3.38
2022-12-23T22:06:53.118Z,3.20
2022-12-23T22:10:15.480Z,3.03
2022-12-23T22:13:38.123Z,3.15
2022-12-23T22:17:00.638Z,2.67
2022-12-23T22:20:22.923Z,2.83
2022-12-23T22:23:48.827Z,3.17
2022-12-23T22:27:11.085Z,3.40
2022-12-23T22:30:33.482Z,2.97
2022-12-23T22:33:55.775Z,2.55
2022-12-23T22:37:18.065Z,2.72
2022-12-23T22:40:40.378Z,2.78
2022-12-23T22:44:02.746Z,2.97
2022-12-23T22:47:25.380Z,3.35
2022-12-23T22:50:47.699Z,2.67
2022-12-23T22:54:11.023Z,2.45
2022-12-23T22:57:34.093Z,2.47
2022-12-23T23:00:57.204Z,3.10
2022-12-23T23:04:19.544Z,2.95
2022-12-23T23:07:41.798Z,2.50
2022-12-23T23:11:05.500Z,3.05
2022-12-23T23:14:27.773Z,2.53
2022-12-23T23:17:50.083Z,3.00
2022-12-23T23:21:14.034Z,2.92
2022-12-23T23:24:36.329Z,3.58
2022-12-23T23:27:58.598Z,2.63
2022-12-23T23:35:10.312Z,2.42
2022-12-23T23:38:33.133Z,2.67
2022-12-23T23:41:55.521Z,3.40
2022-12-23T23:45:18.001Z,2.75
2022-12-23T23:48:40.273Z,2.92
2022-12-23T23:52:02.615Z,3.00
2022-12-23T23:55:24.867Z,2.65
2022-12-23T23:58:47.170Z,3.00
